地図

経路データ

SID SEASON NUMBER BASIN SUBBASIN NAME ISO_TIME NATURE LAT LON WMO_WIND WMO_PRES WMO_AGENCY TRACK_TYPE DIST2LAND LANDFALL IFLAG USA_AGENCY USA_ATCF_ID USA_LAT USA_LON USA_RECORD USA_STATUS USA_WIND USA_PRES USA_SSHS USA_R34_NE USA_R34_SE USA_R34_SW USA_R34_NW USA_R50_NE USA_R50_SE USA_R50_SW USA_R50_NW USA_R64_NE USA_R64_SE USA_R64_SW USA_R64_NW USA_POCI USA_ROCI USA_RMW USA_EYE TOKYO_LAT TOKYO_LON TOKYO_GRADE TOKYO_WIND TOKYO_PRES TOKYO_R50_DIR TOKYO_R50_LONG TOKYO_R50_SHORT TOKYO_R30_DIR TOKYO_R30_LONG TOKYO_R30_SHORT TOKYO_LAND CMA_LAT CMA_LON CMA_CAT CMA_WIND CMA_PRES HKO_LAT HKO_LON HKO_CAT HKO_WIND HKO_PRES NEWDELHI_LAT NEWDELHI_LON NEWDELHI_GRADE NEWDELHI_WIND NEWDELHI_PRES NEWDELHI_CI NEWDELHI_DP NEWDELHI_POCI REUNION_LAT REUNION_LON REUNION_TYPE REUNION_WIND REUNION_PRES REUNION_TNUM REUNION_CI REUNION_RMW REUNION_R34_NE REUNION_R34_SE REUNION_R34_SW REUNION_R34_NW REUNION_R50_NE REUNION_R50_SE REUNION_R50_SW REUNION_R50_NW REUNION_R64_NE REUNION_R64_SE REUNION_R64_SW REUNION_R64_NW BOM_LAT BOM_LON BOM_TYPE BOM_WIND BOM_PRES BOM_TNUM BOM_CI BOM_RMW BOM_R34_NE BOM_R34_SE BOM_R34_SW BOM_R34_NW BOM_R50_NE BOM_R50_SE BOM_R50_SW BOM_R50_NW BOM_R64_NE BOM_R64_SE BOM_R64_SW BOM_R64_NW BOM_ROCI BOM_POCI BOM_EYE BOM_POS_METHOD BOM_PRES_METHOD NADI_LAT NADI_LON NADI_CAT NADI_WIND NADI_PRES WELLINGTON_LAT WELLINGTON_LON WELLINGTON_WIND WELLINGTON_PRES DS824_LAT DS824_LON DS824_STAGE DS824_WIND DS824_PRES TD9636_LAT TD9636_LON TD9636_STAGE TD9636_WIND TD9636_PRES TD9635_LAT TD9635_LON TD9635_WIND TD9635_PRES TD9635_ROCI NEUMANN_LAT NEUMANN_LON NEUMANN_CLASS NEUMANN_WIND NEUMANN_PRES MLC_LAT MLC_LON MLC_CLASS MLC_WIND MLC_PRES USA_GUST BOM_GUST BOM_GUST_PER REUNION_GUST REUNION_GUST_PER USA_SEAHGT USA_SEARAD_NE USA_SEARAD_SE USA_SEARAD_SW USA_SEARAD_NW STORM_SPEED STORM_DIR
1968240N26273 1968 78 NA GM NOT_NAMED 1968-08-26 12:00:00 TS 26.3000 -87.2500 25 hurdat_atl main 354 345 O_____________ hurdat_atl AL061968 26.6000 -87.0000 TD 25 -1 3 56
1968240N26273 1968 78 NA GM NOT_NAMED 1968-08-26 15:00:00 TS 26.3801 -87.1187 main 350 347 P_____________ AL061968 26.7500 -86.9901 TD 25 -1 3 48
1968240N26273 1968 78 NA GM NOT_NAMED 1968-08-26 18:00:00 TS 26.5000 -87.0000 25 hurdat_atl main 347 335 O_____________ hurdat_atl AL061968 26.9000 -87.0000 TD 25 -1 4 33
1968240N26273 1968 78 NA GM NOT_NAMED 1968-08-26 21:00:00 TS 26.6849 -86.8937 main 335 325 P_____________ AL061968 27.0500 -87.0299 TD 25 -1 5 29
1968240N26273 1968 78 NA GM NOT_NAMED 1968-08-27 00:00:00 TS 26.9000 -86.7500 25 hurdat_atl main 332 309 O_____________ hurdat_atl AL061968 27.2000 -87.0000 TD 25 -1 5 37
1968240N26273 1968 78 NA GM NOT_NAMED 1968-08-27 03:00:00 TS 27.1074 -86.5337 main 309 281 P_____________ AL061968 27.3500 -86.8450 TD 25 -1 6 48
1968240N26273 1968 78 NA GM NOT_NAMED 1968-08-27 06:00:00 TS 27.3000 -86.2500 25 hurdat_atl main 279 261 O_____________ hurdat_atl AL061968 27.5000 -86.6000 TD 25 -1 6 58
1968240N26273 1968 78 NA GM NOT_NAMED 1968-08-27 09:00:00 TS 27.4500 -85.9185 main 261 235 P_____________ AL061968 27.6423 -86.3448 TD 25 -1 7 64
1968240N26273 1968 78 NA GM NOT_NAMED 1968-08-27 12:00:00 TS 27.6000 -85.5500 25 hurdat_atl main 234 212 O_____________ hurdat_atl AL061968 27.8000 -86.0000 TD 25 -1 7 62
1968240N26273 1968 78 NA GM NOT_NAMED 1968-08-27 15:00:00 TS 27.8000 -85.1750 main 212 186 P_____________ AL061968 28.0003 -85.5152 TD 25 -1 8 59
1968240N26273 1968 78 NA GM NOT_NAMED 1968-08-27 18:00:00 TS 28.0000 -84.8000 25 hurdat_atl main 186 158 O_____________ hurdat_atl AL061968 28.2000 -85.0000 TD 25 -1 7 62
1968240N26273 1968 78 NA GM NOT_NAMED 1968-08-27 21:00:00 TS 28.1424 -84.4385 main 148 125 P_____________ AL061968 28.3648 -84.5773 TD 25 -1 7 64
1968240N26273 1968 78 NA GM NOT_NAMED 1968-08-28 00:00:00 TS 28.3000 -84.1000 25 hurdat_atl main 125 103 O_____________ hurdat_atl AL061968 28.5000 -84.2000 TD 25 -1 7 54
1968240N26273 1968 78 NA GM NOT_NAMED 1968-08-28 03:00:00 TS 28.5612 -83.7814 main 95 59 P_____________ AL061968 28.6150 -83.8199 TD 25 -1 7 46
1968240N26273 1968 78 NA GM NOT_NAMED 1968-08-28 06:00:00 TS 28.8000 -83.5000 25 hurdat_atl main 59 38 O_____________ hurdat_atl AL061968 28.7000 -83.5000 TD 25 -1 6 53
1968240N26273 1968 78 NA GM NOT_NAMED 1968-08-28 09:00:00 TS 28.9200 -83.2411 main 34 31 P_____________ AL061968 28.7649 -83.2624 TD 25 -1 4 69
1968240N26273 1968 78 NA GM NOT_NAMED 1968-08-28 12:00:00 TS 28.9500 -83.0500 25 hurdat_atl main 19 14 O_____________ hurdat_atl AL061968 28.8000 -83.1000 TD 25 -1 3 84
1968240N26273 1968 78 NA GM NOT_NAMED 1968-08-28 15:00:00 TS 28.9449 -82.9450 main 14 14 P_____________ AL061968 28.8075 -82.9700 TD 25 -1 2 128
1968240N26273 1968 78 NA GM NOT_NAMED 1968-08-28 18:00:00 TS 28.8500 -82.9000 25 hurdat_atl main 14 14 O_____________ hurdat_atl AL061968 28.8000 -82.9000 TD 25 -1 3 168
1968240N26273 1968 78 NA GM NOT_NAMED 1968-08-28 21:00:00 TS 28.6400 -82.8637 main 29 22 P_____________ AL061968 28.8075 -82.8775 TD 25 -1 5 176
1968240N26273 1968 78 NA GM NOT_NAMED 1968-08-29 00:00:00 TS 28.4000 -82.8500 25 hurdat_atl main 22 14 O_____________ hurdat_atl AL061968 28.8000 -82.9000 TD 25 -1 4 178
1968240N26273 1968 78 NA GM NOT_NAMED 1968-08-29 03:00:00 TS 28.2388 -82.8576 main 14 9 P_____________ AL061968 28.7650 -82.9575 TD 25 -1 3 0
1968240N26273 1968 78 NA GM NOT_NAMED 1968-08-29 06:00:00 TS 28.1000 -82.8500 25 hurdat_atl main 0 0 O_____________ hurdat_atl AL061968 28.7000 -83.0000 TD 25 -1 3 169
1968240N26273 1968 78 NA NA NOT_NAMED 1968-08-29 09:00:00 TS 27.9350 -82.7900 main 0 0 P_____________ AL061968 28.6150 -82.9800 TD 25 -1 3 157
1968240N26273 1968 78 NA NA NOT_NAMED 1968-08-29 12:00:00 TS 27.8000 -82.7000 25 hurdat_atl main 0 0 O_____________ hurdat_atl AL061968 28.5000 -82.9000 TD 25 -1 3 141
1968240N26273 1968 78 NA GM NOT_NAMED 1968-08-29 15:00:00 TS 27.7275 -82.6075 main 9 9 P_____________ AL061968 28.3575 -82.7725 TD 25 -1 2 120
1968240N26273 1968 78 NA GM NOT_NAMED 1968-08-29 18:00:00 TS 27.7000 -82.5000 25 hurdat_atl main 9 0 O_____________ hurdat_atl AL061968 28.2000 -82.6000 TD 25 -1 2 102
1968240N26273 1968 78 NA NA NOT_NAMED 1968-08-29 21:00:00 TS 27.6850 -82.3749 main 0 0 P_____________ AL061968 28.0351 -82.3924 TD 25 -1 2 90
1968240N26273 1968 78 NA NA NOT_NAMED 1968-08-30 00:00:00 TS 27.7000 -82.2500 25 hurdat_atl main 0 0 O_____________ hurdat_atl AL061968 27.9000 -82.2000 TD 25 -1 2 76
1968240N26273 1968 78 NA NA NOT_NAMED 1968-08-30 03:00:00 TS 27.7387 -82.1351 main 0 0 P_____________ AL061968 27.8200 -82.0701 TD 25 -1 2 60
1968240N26273 1968 78 NA NA NOT_NAMED 1968-08-30 06:00:00 TS 27.8000 -82.0500 25 hurdat_atl main 0 0 O_____________ hurdat_atl AL061968 27.8000 -82.0000 TD 25 -1 2 42
1968240N26273 1968 78 NA NA NOT_NAMED 1968-08-30 09:00:00 TS 27.8637 -82.0100 main 0 0 P_____________ AL061968 27.8200 -81.9850 TD 25 -1 2 12
1968240N26273 1968 78 NA NA NOT_NAMED 1968-08-30 12:00:00 TS 27.9500 -82.0000 25 hurdat_atl main 0 0 O_____________ hurdat_atl AL061968 27.9000 -82.0000 TD 25 -1 2 8
1968240N26273 1968 78 NA NA NOT_NAMED 1968-08-30 15:00:00 TS 28.0712 -82.0000 main 0 0 P_____________ AL061968 28.0350 -82.0075 TD 25 -1 3 2
1968240N26273 1968 78 NA NA NOT_NAMED 1968-08-30 18:00:00 TS 28.2000 -82.0000 25 hurdat_atl main 0 0 O_____________ hurdat_atl AL061968 28.2000 -82.0000 TD 25 -1 2 0
1968240N26273 1968 78 NA NA NOT_NAMED 1968-08-30 21:00:00 TS 28.2775 -81.9825 main 0 0 P_____________ AL061968 28.3350 -81.9650 TD 25 -1 2 13
1968240N26273 1968 78 NA NA NOT_NAMED 1968-08-31 00:00:00 TS 28.4000 -81.9500 25 hurdat_atl main 0 0 O_____________ hurdat_atl AL061968 28.5000 -81.9000 TD 25 -1 4 10
1968240N26273 1968 78 NA NA NOT_NAMED 1968-08-31 03:00:00 TS 28.6675 -81.9112 main 0 0 P_____________ AL061968 28.7425 -81.8076 TD 25 -1 6 9
1968240N26273 1968 78 NA NA NOT_NAMED 1968-08-31 06:00:00 TS 28.9500 -81.8500 25 hurdat_atl main 0 0 O_____________ hurdat_atl AL061968 29.0000 -81.7000 TD 25 -1 5 18
1968240N26273 1968 78 NA NA NOT_NAMED 1968-08-31 09:00:00 TS 29.1150 -81.7500 main 0 0 P_____________ AL061968 29.2150 -81.6000 TD 25 -1 3 30
1968240N26273 1968 78 NA NA NOT_NAMED 1968-08-31 12:00:00 TS 29.2286 -81.6714 25 hurdat_atl main 0 0 O_____________ hurdat_atl AL061968 29.4000 -81.5000 TD 25 -1 3 17
1968240N26273 1968 78 NA NA NOT_NAMED 1968-08-31 15:00:00 TS 29.3658 -81.6616 main 0 0 P_____________ AL061968 29.5500 -81.3552 TD 25 -1 3 359
1968240N26273 1968 78 NA NA NOT_NAMED 1968-08-31 18:00:00 TS 29.5400 -81.7000 25 hurdat_atl main 0 0 O_____________ hurdat_atl AL061968 29.7000 -81.3000 TD 25 -1 5 345
1968240N26273 1968 78 NA NA NOT_NAMED 1968-08-31 21:00:00 TS 29.7999 -81.7948 main 0 0 P_____________ AL061968 29.8926 -81.5294 TD 25 -1 6 0
1968240N26273 1968 78 NA NA NOT_NAMED 1968-09-01 00:00:00 TS 30.1000 -81.7000 25 atcf main 0 0 O_____________ atcf AL061968 30.1000 -81.7000 TD 25 -1 6 34
1968240N26273 1968 78 NA NA NOT_NAMED 1968-09-01 03:00:00 TS 30.3078 -81.4002 main 9 9 P_____________ AL061968 30.2928 -81.4380 TD 25 -1 7 52
1968240N26273 1968 78 NA NA NOT_NAMED 1968-09-01 06:00:00 TS 30.5000 -81.1000 25 atcf main 36 36 O_____________ atcf AL061968 30.5000 -81.1000 TD 25 -1 6 40
1968240N26273 1968 78 NA NA NOT_NAMED 1968-09-01 09:00:00 TS 30.7348 -80.9872 main 38 38 P_____________ AL061968 30.7398 -80.9746 TD 25 -1 5 10
1968240N26273 1968 78 NA NA NOT_NAMED 1968-09-01 12:00:00 TS 31.0000 -81.0000 25 atcf main 38 O_____________ atcf AL061968 31.0000 -81.0000 TD 25 -1 5 358

IBTrACS Databaseについて

本データベースは、米国NOAAが公開する1842年以降の世界の熱帯低気圧のベストトラックデータアーカイブInternational Best Track Archive for Climate Stewardship (IBTrACS)を、ウェブで閲覧しやすい形式に変換したものです。

最終更新日:2022-11-16